Rickmers Seoul — V7EI5 — position and weather

sailwx.info

Track history (hours):
 
Tides and Currents Weather Stations Pressure Air Temp Water Temp Dewpoint Dewpoint Depression Visibility Wind Speed Wind Dir Waves Ship Positions

Rickmers Seoul

Last reported at 2017-Nov-06 21:05 UTC. Time now 2017-Nov-22 16:43 UTC.
Position N 44°19' E 014°20'.
Warning: this ship's position is 15 days out of date.

Length 192.9 m; beam 27.8 m; draft 11.2 m.

Type: Ship (hazmat cat A). MMSI: 538001809.

Date/timePositionNaut miles runAvg speedWind from/ knotsBaromVisibWave heightAir tempDewpointWater temp
2017-Nov-06 21:05N 44°19' E 014°20'115.9
2017-Nov-06 21:00N 44°21' E 014°19'816.1
2017-Nov-06 20:30N 44°28' E 014°14'52 1.4
2017-Nov-05 07:10N 45°19' E 014°24'1 6.5
2017-Nov-05 07:00N 45°18' E 014°24'5 9.4
2017-Nov-05 06:30N 45°14' E 014°20'713.0
2017-Nov-05 06:00N 45°09' E 014°16'1316.4
2017-Nov-05 05:13N 44°56' E 014°12'516.7
2017-Nov-05 04:54N 44°51' E 014°10'616.4
2017-Nov-05 04:30N 44°46' E 014°05'815.1
2017-Nov-05 04:00N 44°41' E 013°56'815.6
2017-Nov-05 03:30N 44°41' E 013°45'815.9
2017-Nov-05 03:00N 44°40' E 013°34'714.0
2017-Nov-05 02:30N 44°44' E 013°27'815.6
2017-Nov-05 02:00N 44°51' E 013°21'714.0
2017-Nov-05 01:30N 44°55' E 013°13'816.0
2017-Nov-05 01:00N 44°56' E 013°02'816.2
2017-Nov-05 00:30N 44°56' E 012°51'816.2
2017-Nov-05 00:00N 45°02' E 012°45'816.1
2017-Nov-04 23:30N 45°09' E 012°37'714.6
2017-Nov-04 23:00N 45°14' E 012°30'714.3
2017-Nov-04 22:30N 45°19' E 012°23'5 9.3
2017-Nov-04 22:00N 45°21' E 012°17'4 8.2
2017-Nov-04 21:30N 45°25' E 012°16'3 5.7
2017-Nov-04 21:00N 45°28' E 012°15'0 0.3
2017-Nov-04 20:26N 45°28' E 012°15'0 0.0
2017-Nov-04 19:59N 45°28' E 012°15'0 0.0
2017-Nov-04 19:29N 45°28' E 012°15'0 0.0
2017-Nov-04 18:59N 45°28' E 012°15'0 0.0
2017-Nov-04 18:29N 45°28' E 012°15'0 0.0
2017-Nov-04 17:59N 45°28' E 012°15'0 0.0
2017-Nov-04 17:29N 45°28' E 012°15'0 0.0
2017-Nov-04 16:59N 45°28' E 012°15'0 0.0
2017-Nov-04 16:29N 45°28' E 012°15'0 0.0
2017-Nov-04 15:53N 45°28' E 012°15'0 0.0
2017-Nov-04 15:23N 45°28' E 012°15'0 0.0
2017-Nov-04 14:56N 45°28' E 012°15'0 0.0
2017-Nov-04 14:29N 45°28' E 012°15'0 0.0
2017-Nov-04 13:59N 45°28' E 012°15'0 0.0
2017-Nov-04 13:29N 45°28' E 012°15'0 0.0
2017-Nov-04 12:47N 45°28' E 012°15'0 0.0
2017-Nov-04 12:29N 45°28' E 012°15'0 0.0
2017-Nov-04 11:53N 45°28' E 012°15'0 0.0
2017-Nov-04 11:29N 45°28' E 012°15'0 0.0
2017-Nov-04 10:59N 45°28' E 012°15'0 0.0
2017-Nov-04 10:29N 45°28' E 012°15'0 0.0
2017-Nov-04 09:56N 45°28' E 012°15'0 0.0
2017-Nov-04 09:29N 45°28' E 012°15'0 0.0
2017-Nov-04 08:59N 45°28' E 012°15'0 0.0
2017-Nov-04 08:29N 45°28' E 012°15'0 0.0
2017-Nov-04 07:59N 45°28' E 012°15'0 0.0
2017-Nov-04 07:26N 45°28' E 012°15'0 0.0
2017-Nov-04 06:59N 45°28' E 012°15'0 0.0
2017-Nov-04 06:26N 45°28' E 012°15'0 0.0
2017-Nov-04 05:56N 45°28' E 012°15'0 0.0
2017-Nov-04 05:26N 45°28' E 012°15'0 0.0
2017-Nov-04 04:50N 45°28' E 012°15'0 0.0
2017-Nov-04 04:26N 45°28' E 012°15'0 0.0
2017-Nov-04 03:59N 45°28' E 012°15'0 0.0
2017-Nov-04 03:29N 45°28' E 012°15'0 0.0
2017-Nov-04 02:56N 45°28' E 012°15'0 0.0
2017-Nov-04 02:26N 45°28' E 012°15'0 0.0
2017-Nov-04 01:59N 45°28' E 012°15'0 0.0
2017-Nov-04 01:29N 45°28' E 012°15'0 0.0
2017-Nov-04 00:59N 45°28' E 012°15'0 0.0
2017-Nov-04 00:29N 45°28' E 012°15'0 0.0
2017-Nov-03 23:56N 45°28' E 012°15'0 0.0
2017-Nov-03 23:23N 45°28' E 012°15'0 0.0
2017-Nov-03 22:59N 45°28' E 012°15'0 0.0
2017-Nov-03 22:29N 45°28' E 012°15'0 0.0
2017-Nov-03 21:50N 45°28' E 012°15'0 0.0
2017-Nov-03 21:29N 45°28' E 012°15'0 0.0
2017-Nov-03 20:59N 45°28' E 012°15'0 0.0
2017-Nov-03 20:29N 45°28' E 012°15'0 0.0
2017-Nov-03 19:56N 45°28' E 012°15'0 0.0
2017-Nov-03 19:29N 45°28' E 012°15'0 0.0
2017-Nov-03 18:56N 45°28' E 012°15'0 0.0
2017-Nov-03 18:29N 45°28' E 012°15'0 0.0
2017-Nov-03 17:53N 45°28' E 012°15'0 0.0
2017-Nov-03 17:26N 45°28' E 012°15'0 0.0
2017-Nov-03 16:59N 45°28' E 012°15'0 0.0
2017-Nov-03 16:26N 45°28' E 012°15'0 0.0
2017-Nov-03 15:59N 45°28' E 012°15'0 0.0
2017-Nov-03 15:29N 45°28' E 012°15'0 0.0
2017-Nov-03 14:59N 45°28' E 012°15'0 0.0
2017-Nov-03 14:29N 45°28' E 012°15'0 0.0
2017-Nov-03 13:59N 45°28' E 012°15'0 0.0
2017-Nov-03 13:26N 45°28' E 012°15'0 0.0
2017-Nov-03 13:00N 45°28' E 012°15'1 2.3
2017-Nov-03 12:30N 45°27' E 012°16'3 6.6
2017-Nov-03 12:00N 45°23' E 012°16'4 8.1
2017-Nov-03 11:30N 45°20' E 012°20'4 8.3
2017-Nov-03 11:00N 45°19' E 012°25'3 6.0
2017-Nov-03 10:28N 45°21' E 012°29'0 0.1
2017-Nov-03 09:58N 45°21' E 012°29'0 0.0
2017-Nov-03 09:28N 45°21' E 012°29'0 0.0
2017-Nov-03 08:58N 45°21' E 012°29'0 0.0
2017-Nov-03 08:28N 45°21' E 012°29'0 0.0
2017-Nov-03 07:58N 45°21' E 012°29'0 0.0
2017-Nov-03 07:28N 45°21' E 012°29'0 0.0
2017-Nov-03 06:58N 45°21' E 012°29'0 0.0
2017-Nov-03 06:28N 45°21' E 012°29'0 0.0
2017-Nov-03 05:58N 45°21' E 012°29'0 0.0
2017-Nov-03 05:28N 45°21' E 012°29'0 0.0
2017-Nov-03 04:58N 45°21' E 012°29'0 0.0
2017-Nov-03 04:28N 45°21' E 012°29'0 0.0
2017-Nov-03 03:58N 45°21' E 012°29'0 0.0
2017-Nov-03 03:28N 45°21' E 012°29'0 0.1
2017-Nov-03 03:01N 45°21' E 012°29'3 5.7
2017-Nov-03 02:30N 45°18' E 012°30'713.1
2017-Nov-03 02:01N 45°14' E 012°38'713.2
2017-Nov-03 01:31N 45°10' E 012°45'612.9
2017-Nov-03 01:00N 45°04' E 012°50'714.1
2017-Nov-03 00:30N 44°58' E 012°54'713.8
2017-Nov-03 00:00N 44°52' E 012°58'713.9
2017-Nov-02 23:30N 44°45' E 013°01'714.0
2017-Nov-02 23:00N 44°38' E 013°05'714.3
2017-Nov-02 22:30N 44°32' E 013°08'714.2
2017-Nov-02 22:00N 44°25' E 013°11'714.2
2017-Nov-02 21:30N 44°18' E 013°14'612.8
2017-Nov-02 21:00N 44°14' E 013°21'713.0
2017-Nov-02 20:30N 44°10' E 013°28'613.2
2017-Nov-02 20:00N 44°06' E 013°35'713.5
2017-Nov-02 19:30N 44°02' E 013°43'713.6
2017-Nov-02 18:59N 43°58' E 013°51'613.5
2017-Nov-02 18:30N 43°54' E 013°57'32313.6
2017-Nov-01 18:43N 39°41' E 018°29'164 9.8
2017-Nov-01 01:59N 38°42' E 015°12'36914.7
2017-Oct-31 00:48N 43°08' E 009°33'614.2
2017-Oct-31 00:22N 43°14' E 009°30'514.0
2017-Oct-31 00:00N 43°18' E 009°28'713.8
2017-Oct-30 23:30N 43°25' E 009°25'713.8
2017-Oct-30 23:00N 43°32' E 009°22'714.2
2017-Oct-30 22:30N 43°38' E 009°18'714.3
2017-Oct-30 22:00N 43°45' E 009°15'714.8
2017-Oct-30 21:30N 43°52' E 009°11'815.0
2017-Oct-30 21:00N 43°59' E 009°08'815.0
2017-Oct-30 20:30N 44°06' E 009°04'714.9
2017-Oct-30 20:00N 44°13' E 009°01'815.0
2017-Oct-30 19:30N 44°20' E 008°58'4 8.9
2017-Oct-30 19:00N 44°24' E 008°55'1 1.6
2017-Oct-30 18:30N 44°24' E 008°53'0 0.0
2017-Oct-30 17:57N 44°24' E 008°53'0 0.0
2017-Oct-30 17:30N 44°24' E 008°53'0 0.0
2017-Oct-30 17:00N 44°24' E 008°53'0 0.0
2017-Oct-30 16:27N 44°24' E 008°53'0 0.0
2017-Oct-30 15:57N 44°24' E 008°53'0 0.0
2017-Oct-30 15:30N 44°24' E 008°53'0 0.0
2017-Oct-30 15:00N 44°24' E 008°53'0 0.0
2017-Oct-30 14:30N 44°24' E 008°53'0 0.0
2017-Oct-30 13:27N 44°24' E 008°53'0 0.0
2017-Oct-30 12:57N 44°24' E 008°53'0 0.0
2017-Oct-30 12:27N 44°24' E 008°53'0 0.0
2017-Oct-30 12:00N 44°24' E 008°53'0 0.0
2017-Oct-30 11:21N 44°24' E 008°53'0 0.0
2017-Oct-30 10:57N 44°24' E 008°53'0 0.0
2017-Oct-30 10:24N 44°24' E 008°53'0 0.0
2017-Oct-30 09:57N 44°24' E 008°53'0 0.0
2017-Oct-30 09:30N 44°24' E 008°53'0 0.0
2017-Oct-30 08:57N 44°24' E 008°53'0 0.0
2017-Oct-30 08:27N 44°24' E 008°53'0 0.0
2017-Oct-30 07:53N 44°24' E 008°53'0 0.0
2017-Oct-30 07:26N 44°24' E 008°53'0 0.0
2017-Oct-30 06:59N 44°24' E 008°53'0 0.0
2017-Oct-30 06:26N 44°24' E 008°53'0 0.0
2017-Oct-30 05:56N 44°24' E 008°53'0 0.0
2017-Oct-30 05:29N 44°24' E 008°53'0 0.0
2017-Oct-30 04:59N 44°24' E 008°53'0 0.0
2017-Oct-30 04:26N 44°24' E 008°53'0 0.0
2017-Oct-30 03:56N 44°24' E 008°53'0 0.0
2017-Oct-30 03:26N 44°24' E 008°53'0 0.0
2017-Oct-30 02:59N 44°24' E 008°53'0 0.0
2017-Oct-30 02:29N 44°24' E 008°53'0 0.0
2017-Oct-30 01:59N 44°24' E 008°53'0 0.0
2017-Oct-30 01:29N 44°24' E 008°53'0 0.0
2017-Oct-30 00:59N 44°24' E 008°53'0 0.0
2017-Oct-30 00:29N 44°24' E 008°53'0 0.0
2017-Oct-29 23:59N 44°24' E 008°53'0 0.0
2017-Oct-29 23:29N 44°24' E 008°53'0 0.0
2017-Oct-29 22:59N 44°24' E 008°53'0 0.0
2017-Oct-29 22:29N 44°24' E 008°53'0 0.0
2017-Oct-29 21:59N 44°24' E 008°53'0 0.0
2017-Oct-29 21:29N 44°24' E 008°53'0 0.0
2017-Oct-29 20:59N 44°24' E 008°53'0 0.0
2017-Oct-29 20:29N 44°24' E 008°53'0 0.0
2017-Oct-29 19:59N 44°24' E 008°53'0 0.0
2017-Oct-29 19:29N 44°24' E 008°53'0 0.0
2017-Oct-29 18:50N 44°24' E 008°53'0 0.0
2017-Oct-29 18:26N 44°24' E 008°53'0 0.0
2017-Oct-29 17:59N 44°24' E 008°53'0 0.0
2017-Oct-29 17:29N 44°24' E 008°53'0 0.0
2017-Oct-29 16:56N 44°24' E 008°53'0 0.0
2017-Oct-29 16:29N 44°24' E 008°53'0 0.0
2017-Oct-29 15:59N 44°24' E 008°53'0 0.0
2017-Oct-29 15:29N 44°24' E 008°53'0 0.0
2017-Oct-29 14:59N 44°24' E 008°53'0 0.0
2017-Oct-29 14:26N 44°24' E 008°53'0 0.0
2017-Oct-29 13:56N 44°24' E 008°53'0 0.0
2017-Oct-29 13:26N 44°24' E 008°53'0 0.0
2017-Oct-29 12:59N 44°24' E 008°53'0 0.0
2017-Oct-29 12:29N 44°24' E 008°53'0 0.0
2017-Oct-29 11:59N 44°24' E 008°53'0 0.0
2017-Oct-29 11:29N 44°24' E 008°53'0 0.0
2017-Oct-29 10:59N 44°24' E 008°53'0 0.0
2017-Oct-29 10:29N 44°24' E 008°53'0 0.0
2017-Oct-29 09:59N 44°24' E 008°53'0 0.0
2017-Oct-29 09:29N 44°24' E 008°53'0 0.0
2017-Oct-29 09:00N 44°24' E 008°53'2 3.7
2017-Oct-29 08:31N 44°24' E 008°56'3 5.6
2017-Oct-29 08:00N 44°21' E 008°58'5 9.1
2017-Oct-29 07:31N 44°17' E 008°55'612.8
2017-Oct-29 07:00N 44°13' E 008°49'612.9
2017-Oct-29 06:31N 44°09' E 008°42'712.8
2017-Oct-29 06:00N 44°04' E 008°35'612.6
2017-Oct-29 05:29N 43°60' E 008°29'812.7
2017-Oct-29 04:52N 43°54' E 008°21'30612.3
2017-Oct-28 04:02N 40°29' E 003°15'113.4
2017-Oct-28 03:55N 40°28' E 003°13'613.4
2017-Oct-28 03:27N 40°24' E 003°07'613.9
2017-Oct-28 03:00N 40°19' E 003°01'714.6
2017-Oct-28 02:30N 40°14' E 002°54'815.3
2017-Oct-28 02:00N 40°09' E 002°47'815.5
2017-Oct-28 01:30N 40°04' E 002°39'816.0
2017-Oct-28 01:01N 39°59' E 002°31'6216.2
2017-Oct-27 21:13N 39°17' E 001°32'  
Track history (hours):
 
Tides and Currents Weather Stations Pressure Air Temp Water Temp Dewpoint Dewpoint Depression Visibility Wind Speed Wind Dir Waves Ship Positions

Rickmers Seoul

Last reported at 2017-Nov-06 21:05 UTC. Time now 2017-Nov-22 16:43 UTC.
Position N 44°19' E 014°20'.
Warning: this ship's position is 15 days out of date.

Length 192.9 m; beam 27.8 m; draft 11.2 m.

Type: Ship (hazmat cat A). MMSI: 538001809.

Date/timePositionNaut miles runAvg speedWind from/ knotsBaromVisibWave heightAir tempDewpointWater temp
2017-Nov-06 21:05N 44°19' E 014°20'115.9
2017-Nov-06 21:00N 44°21' E 014°19'816.1
2017-Nov-06 20:30N 44°28' E 014°14'52 1.4
2017-Nov-05 07:10N 45°19' E 014°24'1 6.5
2017-Nov-05 07:00N 45°18' E 014°24'5 9.4
2017-Nov-05 06:30N 45°14' E 014°20'713.0
2017-Nov-05 06:00N 45°09' E 014°16'1316.4
2017-Nov-05 05:13N 44°56' E 014°12'516.7
2017-Nov-05 04:54N 44°51' E 014°10'616.4
2017-Nov-05 04:30N 44°46' E 014°05'815.1
2017-Nov-05 04:00N 44°41' E 013°56'815.6
2017-Nov-05 03:30N 44°41' E 013°45'815.9
2017-Nov-05 03:00N 44°40' E 013°34'714.0
2017-Nov-05 02:30N 44°44' E 013°27'815.6
2017-Nov-05 02:00N 44°51' E 013°21'714.0
2017-Nov-05 01:30N 44°55' E 013°13'816.0
2017-Nov-05 01:00N 44°56' E 013°02'816.2
2017-Nov-05 00:30N 44°56' E 012°51'816.2
2017-Nov-05 00:00N 45°02' E 012°45'816.1
2017-Nov-04 23:30N 45°09' E 012°37'714.6
2017-Nov-04 23:00N 45°14' E 012°30'714.3
2017-Nov-04 22:30N 45°19' E 012°23'5 9.3
2017-Nov-04 22:00N 45°21' E 012°17'4 8.2
2017-Nov-04 21:30N 45°25' E 012°16'3 5.7
2017-Nov-04 21:00N 45°28' E 012°15'0 0.3
2017-Nov-04 20:26N 45°28' E 012°15'0 0.0
2017-Nov-04 19:59N 45°28' E 012°15'0 0.0
2017-Nov-04 19:29N 45°28' E 012°15'0 0.0
2017-Nov-04 18:59N 45°28' E 012°15'0 0.0
2017-Nov-04 18:29N 45°28' E 012°15'0 0.0
2017-Nov-04 17:59N 45°28' E 012°15'0 0.0
2017-Nov-04 17:29N 45°28' E 012°15'0 0.0
2017-Nov-04 16:59N 45°28' E 012°15'0 0.0
2017-Nov-04 16:29N 45°28' E 012°15'0 0.0
2017-Nov-04 15:53N 45°28' E 012°15'0 0.0
2017-Nov-04 15:23N 45°28' E 012°15'0 0.0
2017-Nov-04 14:56N 45°28' E 012°15'0 0.0
2017-Nov-04 14:29N 45°28' E 012°15'0 0.0
2017-Nov-04 13:59N 45°28' E 012°15'0 0.0
2017-Nov-04 13:29N 45°28' E 012°15'0 0.0
2017-Nov-04 12:47N 45°28' E 012°15'0 0.0
2017-Nov-04 12:29N 45°28' E 012°15'0 0.0
2017-Nov-04 11:53N 45°28' E 012°15'0 0.0
2017-Nov-04 11:29N 45°28' E 012°15'0 0.0
2017-Nov-04 10:59N 45°28' E 012°15'0 0.0
2017-Nov-04 10:29N 45°28' E 012°15'0 0.0
2017-Nov-04 09:56N 45°28' E 012°15'0 0.0
2017-Nov-04 09:29N 45°28' E 012°15'0 0.0
2017-Nov-04 08:59N 45°28' E 012°15'0 0.0
2017-Nov-04 08:29N 45°28' E 012°15'0 0.0
2017-Nov-04 07:59N 45°28' E 012°15'0 0.0
2017-Nov-04 07:26N 45°28' E 012°15'0 0.0
2017-Nov-04 06:59N 45°28' E 012°15'0 0.0
2017-Nov-04 06:26N 45°28' E 012°15'0 0.0
2017-Nov-04 05:56N 45°28' E 012°15'0 0.0
2017-Nov-04 05:26N 45°28' E 012°15'0 0.0
2017-Nov-04 04:50N 45°28' E 012°15'0 0.0
2017-Nov-04 04:26N 45°28' E 012°15'0 0.0
2017-Nov-04 03:59N 45°28' E 012°15'0 0.0
2017-Nov-04 03:29N 45°28' E 012°15'0 0.0
2017-Nov-04 02:56N 45°28' E 012°15'0 0.0
2017-Nov-04 02:26N 45°28' E 012°15'0 0.0
2017-Nov-04 01:59N 45°28' E 012°15'0 0.0
2017-Nov-04 01:29N 45°28' E 012°15'0 0.0
2017-Nov-04 00:59N 45°28' E 012°15'0 0.0
2017-Nov-04 00:29N 45°28' E 012°15'0 0.0
2017-Nov-03 23:56N 45°28' E 012°15'0 0.0
2017-Nov-03 23:23N 45°28' E 012°15'0 0.0
2017-Nov-03 22:59N 45°28' E 012°15'0 0.0
2017-Nov-03 22:29N 45°28' E 012°15'0 0.0
2017-Nov-03 21:50N 45°28' E 012°15'0 0.0
2017-Nov-03 21:29N 45°28' E 012°15'0 0.0
2017-Nov-03 20:59N 45°28' E 012°15'0 0.0
2017-Nov-03 20:29N 45°28' E 012°15'0 0.0
2017-Nov-03 19:56N 45°28' E 012°15'0 0.0
2017-Nov-03 19:29N 45°28' E 012°15'0 0.0
2017-Nov-03 18:56N 45°28' E 012°15'0 0.0
2017-Nov-03 18:29N 45°28' E 012°15'0 0.0
2017-Nov-03 17:53N 45°28' E 012°15'0 0.0
2017-Nov-03 17:26N 45°28' E 012°15'0 0.0
2017-Nov-03 16:59N 45°28' E 012°15'0 0.0
2017-Nov-03 16:26N 45°28' E 012°15'0 0.0
2017-Nov-03 15:59N 45°28' E 012°15'0 0.0
2017-Nov-03 15:29N 45°28' E 012°15'0 0.0
2017-Nov-03 14:59N 45°28' E 012°15'0 0.0
2017-Nov-03 14:29N 45°28' E 012°15'0 0.0
2017-Nov-03 13:59N 45°28' E 012°15'0 0.0
2017-Nov-03 13:26N 45°28' E 012°15'0 0.0
2017-Nov-03 13:00N 45°28' E 012°15'1 2.3
2017-Nov-03 12:30N 45°27' E 012°16'3 6.6
2017-Nov-03 12:00N 45°23' E 012°16'4 8.1
2017-Nov-03 11:30N 45°20' E 012°20'4 8.3
2017-Nov-03 11:00N 45°19' E 012°25'3 6.0
2017-Nov-03 10:28N 45°21' E 012°29'0 0.1
2017-Nov-03 09:58N 45°21' E 012°29'0 0.0
2017-Nov-03 09:28N 45°21' E 012°29'0 0.0
2017-Nov-03 08:58N 45°21' E 012°29'0 0.0
2017-Nov-03 08:28N 45°21' E 012°29'0 0.0
2017-Nov-03 07:58N 45°21' E 012°29'0 0.0
2017-Nov-03 07:28N 45°21' E 012°29'0 0.0
2017-Nov-03 06:58N 45°21' E 012°29'0 0.0
2017-Nov-03 06:28N 45°21' E 012°29'0 0.0
2017-Nov-03 05:58N 45°21' E 012°29'0 0.0
2017-Nov-03 05:28N 45°21' E 012°29'0 0.0
2017-Nov-03 04:58N 45°21' E 012°29'0 0.0
2017-Nov-03 04:28N 45°21' E 012°29'0 0.0
2017-Nov-03 03:58N 45°21' E 012°29'0 0.0
2017-Nov-03 03:28N 45°21' E 012°29'0 0.1
2017-Nov-03 03:01N 45°21' E 012°29'3 5.7
2017-Nov-03 02:30N 45°18' E 012°30'713.1
2017-Nov-03 02:01N 45°14' E 012°38'713.2
2017-Nov-03 01:31N 45°10' E 012°45'612.9
2017-Nov-03 01:00N 45°04' E 012°50'714.1
2017-Nov-03 00:30N 44°58' E 012°54'713.8
2017-Nov-03 00:00N 44°52' E 012°58'713.9
2017-Nov-02 23:30N 44°45' E 013°01'714.0
2017-Nov-02 23:00N 44°38' E 013°05'714.3
2017-Nov-02 22:30N 44°32' E 013°08'714.2
2017-Nov-02 22:00N 44°25' E 013°11'714.2
2017-Nov-02 21:30N 44°18' E 013°14'612.8
2017-Nov-02 21:00N 44°14' E 013°21'713.0
2017-Nov-02 20:30N 44°10' E 013°28'613.2
2017-Nov-02 20:00N 44°06' E 013°35'713.5
2017-Nov-02 19:30N 44°02' E 013°43'713.6
2017-Nov-02 18:59N 43°58' E 013°51'613.5
2017-Nov-02 18:30N 43°54' E 013°57'32313.6
2017-Nov-01 18:43N 39°41' E 018°29'164 9.8
2017-Nov-01 01:59N 38°42' E 015°12'36914.7
2017-Oct-31 00:48N 43°08' E 009°33'614.2
2017-Oct-31 00:22N 43°14' E 009°30'514.0
2017-Oct-31 00:00N 43°18' E 009°28'713.8
2017-Oct-30 23:30N 43°25' E 009°25'713.8
2017-Oct-30 23:00N 43°32' E 009°22'714.2
2017-Oct-30 22:30N 43°38' E 009°18'714.3
2017-Oct-30 22:00N 43°45' E 009°15'714.8
2017-Oct-30 21:30N 43°52' E 009°11'815.0
2017-Oct-30 21:00N 43°59' E 009°08'815.0
2017-Oct-30 20:30N 44°06' E 009°04'714.9
2017-Oct-30 20:00N 44°13' E 009°01'815.0
2017-Oct-30 19:30N 44°20' E 008°58'4 8.9
2017-Oct-30 19:00N 44°24' E 008°55'1 1.6
2017-Oct-30 18:30N 44°24' E 008°53'0 0.0
2017-Oct-30 17:57N 44°24' E 008°53'0 0.0
2017-Oct-30 17:30N 44°24' E 008°53'0 0.0
2017-Oct-30 17:00N 44°24' E 008°53'0 0.0
2017-Oct-30 16:27N 44°24' E 008°53'0 0.0
2017-Oct-30 15:57N 44°24' E 008°53'0 0.0
2017-Oct-30 15:30N 44°24' E 008°53'0 0.0
2017-Oct-30 15:00N 44°24' E 008°53'0 0.0
2017-Oct-30 14:30N 44°24' E 008°53'0 0.0
2017-Oct-30 13:27N 44°24' E 008°53'0 0.0
2017-Oct-30 12:57N 44°24' E 008°53'0 0.0
2017-Oct-30 12:27N 44°24' E 008°53'0 0.0
2017-Oct-30 12:00N 44°24' E 008°53'0 0.0
2017-Oct-30 11:21N 44°24' E 008°53'0 0.0
2017-Oct-30 10:57N 44°24' E 008°53'0 0.0
2017-Oct-30 10:24N 44°24' E 008°53'0 0.0
2017-Oct-30 09:57N 44°24' E 008°53'0 0.0
2017-Oct-30 09:30N 44°24' E 008°53'0 0.0
2017-Oct-30 08:57N 44°24' E 008°53'0 0.0
2017-Oct-30 08:27N 44°24' E 008°53'0 0.0
2017-Oct-30 07:53N 44°24' E 008°53'0 0.0
2017-Oct-30 07:26N 44°24' E 008°53'0 0.0
2017-Oct-30 06:59N 44°24' E 008°53'0 0.0
2017-Oct-30 06:26N 44°24' E 008°53'0 0.0
2017-Oct-30 05:56N 44°24' E 008°53'0 0.0
2017-Oct-30 05:29N 44°24' E 008°53'0 0.0
2017-Oct-30 04:59N 44°24' E 008°53'0 0.0
2017-Oct-30 04:26N 44°24' E 008°53'0 0.0
2017-Oct-30 03:56N 44°24' E 008°53'0 0.0
2017-Oct-30 03:26N 44°24' E 008°53'0 0.0
2017-Oct-30 02:59N 44°24' E 008°53'0 0.0
2017-Oct-30 02:29N 44°24' E 008°53'0 0.0
2017-Oct-30 01:59N 44°24' E 008°53'0 0.0
2017-Oct-30 01:29N 44°24' E 008°53'0 0.0
2017-Oct-30 00:59N 44°24' E 008°53'0 0.0
2017-Oct-30 00:29N 44°24' E 008°53'0 0.0
2017-Oct-29 23:59N 44°24' E 008°53'0 0.0
2017-Oct-29 23:29N 44°24' E 008°53'0 0.0
2017-Oct-29 22:59N 44°24' E 008°53'0 0.0
2017-Oct-29 22:29N 44°24' E 008°53'0 0.0
2017-Oct-29 21:59N 44°24' E 008°53'0 0.0
2017-Oct-29 21:29N 44°24' E 008°53'0 0.0
2017-Oct-29 20:59N 44°24' E 008°53'0 0.0
2017-Oct-29 20:29N 44°24' E 008°53'0 0.0
2017-Oct-29 19:59N 44°24' E 008°53'0 0.0
2017-Oct-29 19:29N 44°24' E 008°53'0 0.0
2017-Oct-29 18:50N 44°24' E 008°53'0 0.0
2017-Oct-29 18:26N 44°24' E 008°53'0 0.0
2017-Oct-29 17:59N 44°24' E 008°53'0 0.0
2017-Oct-29 17:29N 44°24' E 008°53'0 0.0
2017-Oct-29 16:56N 44°24' E 008°53'0 0.0
2017-Oct-29 16:29N 44°24' E 008°53'0 0.0
2017-Oct-29 15:59N 44°24' E 008°53'0 0.0
2017-Oct-29 15:29N 44°24' E 008°53'0 0.0
2017-Oct-29 14:59N 44°24' E 008°53'0 0.0
2017-Oct-29 14:26N 44°24' E 008°53'0 0.0
2017-Oct-29 13:56N 44°24' E 008°53'0 0.0
2017-Oct-29 13:26N 44°24' E 008°53'0 0.0
2017-Oct-29 12:59N 44°24' E 008°53'0 0.0
2017-Oct-29 12:29N 44°24' E 008°53'0 0.0
2017-Oct-29 11:59N 44°24' E 008°53'0 0.0
2017-Oct-29 11:29N 44°24' E 008°53'0 0.0
2017-Oct-29 10:59N 44°24' E 008°53'0 0.0
2017-Oct-29 10:29N 44°24' E 008°53'0 0.0
2017-Oct-29 09:59N 44°24' E 008°53'0 0.0
2017-Oct-29 09:29N 44°24' E 008°53'0 0.0
2017-Oct-29 09:00N 44°24' E 008°53'2 3.7
2017-Oct-29 08:31N 44°24' E 008°56'3 5.6
2017-Oct-29 08:00N 44°21' E 008°58'5 9.1
2017-Oct-29 07:31N 44°17' E 008°55'612.8
2017-Oct-29 07:00N 44°13' E 008°49'612.9
2017-Oct-29 06:31N 44°09' E 008°42'712.8
2017-Oct-29 06:00N 44°04' E 008°35'612.6
2017-Oct-29 05:29N 43°60' E 008°29'812.7
2017-Oct-29 04:52N 43°54' E 008°21'30612.3
2017-Oct-28 04:02N 40°29' E 003°15'113.4
2017-Oct-28 03:55N 40°28' E 003°13'613.4
2017-Oct-28 03:27N 40°24' E 003°07'613.9
2017-Oct-28 03:00N 40°19' E 003°01'714.6
2017-Oct-28 02:30N 40°14' E 002°54'815.3
2017-Oct-28 02:00N 40°09' E 002°47'815.5
2017-Oct-28 01:30N 40°04' E 002°39'816.0
2017-Oct-28 01:01N 39°59' E 002°31'6216.2
2017-Oct-27 21:13N 39°17' E 001°32'  

Dump ship's entire track history